sensor_id;sensor_type;location;lat;lon;timestamp;P1;durP1;ratioP1;P2;durP2;ratioP2
5841;SDS011;2947;52.276;9.946;2022-11-04T00:01:52;5.03;;;2.87;;
5841;SDS011;2947;52.276;9.946;2022-11-04T00:04:20;7.40;;;3.20;;
5841;SDS011;2947;52.276;9.946;2022-11-04T00:06:48;6.27;;;3.47;;
5841;SDS011;2947;52.276;9.946;2022-11-04T00:09:19;6.33;;;2.87;;
5841;SDS011;2947;52.276;9.946;2022-11-04T00:11:53;6.60;;;2.90;;
5841;SDS011;2947;52.276;9.946;2022-11-04T00:14:40;5.30;;;3.00;;
5841;SDS011;2947;52.276;9.946;2022-11-04T00:17:08;7.70;;;2.60;;
5841;SDS011;2947;52.276;9.946;2022-11-04T00:19:49;6.10;;;3.30;;
5841;SDS011;2947;52.276;9.946;2022-11-04T00:22:36;7.80;;;3.33;;
5841;SDS011;2947;52.276;9.946;2022-11-04T00:25:22;7.20;;;2.53;;
5841;SDS011;2947;52.276;9.946;2022-11-04T00:30:56;5.70;;;3.33;;
5841;SDS011;2947;52.276;9.946;2022-11-04T00:33:44;7.43;;;3.30;;
5841;SDS011;2947;52.276;9.946;2022-11-04T00:36:11;9.57;;;3.17;;
5841;SDS011;2947;52.276;9.946;2022-11-04T00:38:36;8.10;;;3.60;;
5841;SDS011;2947;52.276;9.946;2022-11-04T00:41:02;11.80;;;3.17;;
5841;SDS011;2947;52.276;9.946;2022-11-04T00:43:48;5.73;;;2.50;;
5841;SDS011;2947;52.276;9.946;2022-11-04T00:46:13;6.23;;;3.23;;
5841;SDS011;2947;52.276;9.946;2022-11-04T00:48:39;6.97;;;3.37;;
5841;SDS011;2947;52.276;9.946;2022-11-04T00:51:05;7.00;;;2.93;;
5841;SDS011;2947;52.276;9.946;2022-11-04T00:53:30;7.23;;;3.97;;
5841;SDS011;2947;52.276;9.946;2022-11-04T00:55:58;6.53;;;3.10;;
5841;SDS011;2947;52.276;9.946;2022-11-04T00:58:24;10.20;;;3.57;;
5841;SDS011;2947;52.276;9.946;2022-11-04T01:00:49;5.00;;;3.07;;
5841;SDS011;2947;52.276;9.946;2022-11-04T01:03:15;9.57;;;2.97;;
5841;SDS011;2947;52.276;9.946;2022-11-04T01:05:41;4.27;;;2.50;;
5841;SDS011;2947;52.276;9.946;2022-11-04T01:08:06;5.57;;;3.33;;
5841;SDS011;2947;52.276;9.946;2022-11-04T01:10:33;12.50;;;3.37;;
5841;SDS011;2947;52.276;9.946;2022-11-04T01:13:00;9.93;;;3.07;;
5841;SDS011;2947;52.276;9.946;2022-11-04T01:15:26;4.60;;;3.03;;
5841;SDS011;2947;52.276;9.946;2022-11-04T01:17:52;11.43;;;3.97;;
5841;SDS011;2947;52.276;9.946;2022-11-04T01:20:17;7.50;;;4.00;;
5841;SDS011;2947;52.276;9.946;2022-11-04T01:22:43;6.17;;;3.47;;
5841;SDS011;2947;52.276;9.946;2022-11-04T01:25:09;5.27;;;3.23;;
5841;SDS011;2947;52.276;9.946;2022-11-04T01:27:35;5.37;;;3.13;;
5841;SDS011;2947;52.276;9.946;2022-11-04T01:30:00;7.43;;;3.07;;
5841;SDS011;2947;52.276;9.946;2022-11-04T01:32:26;4.80;;;2.63;;
5841;SDS011;2947;52.276;9.946;2022-11-04T01:34:52;6.57;;;2.77;;
5841;SDS011;2947;52.276;9.946;2022-11-04T01:37:18;7.33;;;3.13;;
5841;SDS011;2947;52.276;9.946;2022-11-04T01:39:43;5.97;;;3.00;;
5841;SDS011;2947;52.276;9.946;2022-11-04T01:42:11;7.37;;;3.13;;
5841;SDS011;2947;52.276;9.946;2022-11-04T01:44:46;7.33;;;3.10;;
5841;SDS011;2947;52.276;9.946;2022-11-04T01:47:18;7.67;;;3.37;;
5841;SDS011;2947;52.276;9.946;2022-11-04T01:49:51;8.70;;;3.20;;
5841;SDS011;2947;52.276;9.946;2022-11-04T01:52:25;6.60;;;3.10;;
5841;SDS011;2947;52.276;9.946;2022-11-04T01:55:19;7.50;;;3.20;;
5841;SDS011;2947;52.276;9.946;2022-11-04T01:57:52;5.80;;;3.83;;
5841;SDS011;2947;52.276;9.946;2022-11-04T02:00:21;9.73;;;3.80;;
5841;SDS011;2947;52.276;9.946;2022-11-04T02:02:53;8.10;;;4.20;;
5841;SDS011;2947;52.276;9.946;2022-11-04T02:05:24;10.40;;;5.30;;
5841;SDS011;2947;52.276;9.946;2022-11-04T02:07:51;7.50;;;4.00;;
5841;SDS011;2947;52.276;9.946;2022-11-04T02:10:22;9.50;;;4.13;;
5841;SDS011;2947;52.276;9.946;2022-11-04T02:12:52;8.93;;;4.70;;
5841;SDS011;2947;52.276;9.946;2022-11-04T02:31:30;5.70;;;3.17;;
5841;SDS011;2947;52.276;9.946;2022-11-04T02:40:17;4.53;;;2.70;;
5841;SDS011;2947;52.276;9.946;2022-11-04T02:42:59;4.80;;;2.90;;
5841;SDS011;2947;52.276;9.946;2022-11-04T02:45:58;6.50;;;3.40;;
5841;SDS011;2947;52.276;9.946;2022-11-04T02:51:04;6.10;;;3.47;;
5841;SDS011;2947;52.276;9.946;2022-11-04T02:53:46;5.90;;;2.90;;
5841;SDS011;2947;52.276;9.946;2022-11-04T02:56:35;10.57;;;3.27;;
5841;SDS011;2947;52.276;9.946;2022-11-04T02:59:07;4.93;;;3.27;;
5841;SDS011;2947;52.276;9.946;2022-11-04T03:01:40;6.03;;;3.00;;
5841;SDS011;2947;52.276;9.946;2022-11-04T03:04:10;10.50;;;3.00;;
5841;SDS011;2947;52.276;9.946;2022-11-04T03:06:41;4.33;;;2.70;;
5841;SDS011;2947;52.276;9.946;2022-11-04T03:09:09;4.83;;;2.47;;
5841;SDS011;2947;52.276;9.946;2022-11-04T03:11:38;5.00;;;2.50;;
5841;SDS011;2947;52.276;9.946;2022-11-04T03:16:50;3.60;;;2.37;;
5841;SDS011;2947;52.276;9.946;2022-11-04T03:21:57;4.70;;;2.83;;
5841;SDS011;2947;52.276;9.946;2022-11-04T03:24:27;5.73;;;2.60;;
5841;SDS011;2947;52.276;9.946;2022-11-04T03:26:59;3.90;;;2.40;;
5841;SDS011;2947;52.276;9.946;2022-11-04T03:29:35;2.93;;;1.43;;
5841;SDS011;2947;52.276;9.946;2022-11-04T03:32:05;4.30;;;1.30;;
5841;SDS011;2947;52.276;9.946;2022-11-04T03:35:03;3.53;;;1.30;;
5841;SDS011;2947;52.276;9.946;2022-11-04T03:37:30;2.57;;;1.30;;
5841;SDS011;2947;52.276;9.946;2022-11-04T03:39:56;5.13;;;1.50;;
5841;SDS011;2947;52.276;9.946;2022-11-04T03:42:22;4.83;;;1.90;;
5841;SDS011;2947;52.276;9.946;2022-11-04T03:44:50;2.40;;;1.27;;
5841;SDS011;2947;52.276;9.946;2022-11-04T03:47:19;2.50;;;1.20;;
5841;SDS011;2947;52.276;9.946;2022-11-04T03:49:47;3.00;;;1.40;;
5841;SDS011;2947;52.276;9.946;2022-11-04T03:52:15;2.20;;;1.07;;
5841;SDS011;2947;52.276;9.946;2022-11-04T03:54:43;2.50;;;1.00;;
5841;SDS011;2947;52.276;9.946;2022-11-04T03:57:22;2.37;;;1.20;;
5841;SDS011;2947;52.276;9.946;2022-11-04T04:00:15;3.07;;;1.30;;
5841;SDS011;2947;52.276;9.946;2022-11-04T04:05:42;2.30;;;1.20;;
5841;SDS011;2947;52.276;9.946;2022-11-04T04:08:39;2.57;;;1.27;;
5841;SDS011;2947;52.276;9.946;2022-11-04T04:15:07;3.27;;;2.00;;
5841;SDS011;2947;52.276;9.946;2022-11-04T04:17:44;3.70;;;2.17;;
5841;SDS011;2947;52.276;9.946;2022-11-04T04:20:19;3.27;;;1.90;;
5841;SDS011;2947;52.276;9.946;2022-11-04T04:22:50;3.40;;;1.90;;
5841;SDS011;2947;52.276;9.946;2022-11-04T04:25:24;3.80;;;2.27;;
5841;SDS011;2947;52.276;9.946;2022-11-04T04:28:11;5.03;;;2.23;;
5841;SDS011;2947;52.276;9.946;2022-11-04T04:30:40;3.07;;;2.13;;
5841;SDS011;2947;52.276;9.946;2022-11-04T04:33:08;5.53;;;2.70;;
5841;SDS011;2947;52.276;9.946;2022-11-04T04:35:43;6.80;;;2.77;;
5841;SDS011;2947;52.276;9.946;2022-11-04T04:41:10;4.37;;;2.77;;
5841;SDS011;2947;52.276;9.946;2022-11-04T04:44:05;3.97;;;2.53;;
5841;SDS011;2947;52.276;9.946;2022-11-04T04:47:07;4.93;;;2.47;;
5841;SDS011;2947;52.276;9.946;2022-11-04T04:49:47;4.17;;;2.57;;
5841;SDS011;2947;52.276;9.946;2022-11-04T04:52:17;5.37;;;2.80;;
5841;SDS011;2947;52.276;9.946;2022-11-04T04:54:44;3.27;;;2.27;;
5841;SDS011;2947;52.276;9.946;2022-11-04T04:57:10;3.30;;;2.40;;
5841;SDS011;2947;52.276;9.946;2022-11-04T04:59:36;5.50;;;3.00;;
5841;SDS011;2947;52.276;9.946;2022-11-04T05:02:01;5.03;;;2.57;;
5841;SDS011;2947;52.276;9.946;2022-11-04T05:04:27;6.00;;;2.40;;
5841;SDS011;2947;52.276;9.946;2022-11-04T05:06:53;4.30;;;2.70;;
5841;SDS011;2947;52.276;9.946;2022-11-04T05:09:19;5.37;;;2.80;;
5841;SDS011;2947;52.276;9.946;2022-11-04T05:11:45;3.40;;;2.40;;
5841;SDS011;2947;52.276;9.946;2022-11-04T05:14:11;3.37;;;2.27;;
5841;SDS011;2947;52.276;9.946;2022-11-04T05:16:37;3.73;;;2.70;;
5841;SDS011;2947;52.276;9.946;2022-11-04T05:19:02;5.00;;;2.90;;
5841;SDS011;2947;52.276;9.946;2022-11-04T05:21:28;3.27;;;2.27;;
5841;SDS011;2947;52.276;9.946;2022-11-04T05:23:53;4.67;;;2.33;;
5841;SDS011;2947;52.276;9.946;2022-11-04T05:26:19;4.63;;;2.70;;
5841;SDS011;2947;52.276;9.946;2022-11-04T05:28:45;3.87;;;2.30;;
5841;SDS011;2947;52.276;9.946;2022-11-04T05:31:11;4.47;;;2.60;;
5841;SDS011;2947;52.276;9.946;2022-11-04T05:33:36;6.00;;;2.60;;
5841;SDS011;2947;52.276;9.946;2022-11-04T05:36:09;3.20;;;2.23;;
5841;SDS011;2947;52.276;9.946;2022-11-04T05:38:38;4.43;;;2.73;;
5841;SDS011;2947;52.276;9.946;2022-11-04T05:41:05;4.80;;;3.10;;
5841;SDS011;2947;52.276;9.946;2022-11-04T05:43:32;3.80;;;2.90;;
5841;SDS011;2947;52.276;9.946;2022-11-04T05:45:58;3.27;;;2.47;;
5841;SDS011;2947;52.276;9.946;2022-11-04T05:48:24;3.77;;;3.17;;
5841;SDS011;2947;52.276;9.946;2022-11-04T05:50:51;4.00;;;2.90;;
5841;SDS011;2947;52.276;9.946;2022-11-04T05:53:16;4.60;;;3.00;;
5841;SDS011;2947;52.276;9.946;2022-11-04T05:55:42;4.60;;;3.13;;
5841;SDS011;2947;52.276;9.946;2022-11-04T05:58:08;3.90;;;2.77;;
5841;SDS011;2947;52.276;9.946;2022-11-04T06:00:33;5.90;;;3.50;;
5841;SDS011;2947;52.276;9.946;2022-11-04T06:02:59;5.03;;;3.40;;
5841;SDS011;2947;52.276;9.946;2022-11-04T06:05:26;5.27;;;3.00;;
5841;SDS011;2947;52.276;9.946;2022-11-04T06:07:52;5.77;;;3.57;;
5841;SDS011;2947;52.276;9.946;2022-11-04T06:10:18;6.07;;;3.80;;
5841;SDS011;2947;52.276;9.946;2022-11-04T06:12:44;4.63;;;3.60;;
5841;SDS011;2947;52.276;9.946;2022-11-04T06:15:10;5.03;;;3.60;;
5841;SDS011;2947;52.276;9.946;2022-11-04T06:17:36;4.80;;;3.80;;
5841;SDS011;2947;52.276;9.946;2022-11-04T06:20:02;5.87;;;4.30;;
5841;SDS011;2947;52.276;9.946;2022-11-04T06:22:30;6.17;;;4.30;;
5841;SDS011;2947;52.276;9.946;2022-11-04T06:24:56;4.60;;;3.60;;
5841;SDS011;2947;52.276;9.946;2022-11-04T06:27:22;4.40;;;3.33;;
5841;SDS011;2947;52.276;9.946;2022-11-04T06:29:48;7.40;;;3.63;;
5841;SDS011;2947;52.276;9.946;2022-11-04T06:32:14;5.63;;;3.67;;
5841;SDS011;2947;52.276;9.946;2022-11-04T06:34:42;6.67;;;3.90;;
5841;SDS011;2947;52.276;9.946;2022-11-04T06:37:08;7.53;;;4.00;;
5841;SDS011;2947;52.276;9.946;2022-11-04T06:39:35;7.47;;;4.43;;
5841;SDS011;2947;52.276;9.946;2022-11-04T06:42:01;5.93;;;4.30;;
5841;SDS011;2947;52.276;9.946;2022-11-04T06:44:28;6.70;;;5.57;;
5841;SDS011;2947;52.276;9.946;2022-11-04T06:46:53;5.70;;;4.50;;
5841;SDS011;2947;52.276;9.946;2022-11-04T06:49:19;5.00;;;4.00;;
5841;SDS011;2947;52.276;9.946;2022-11-04T06:51:47;8.63;;;4.70;;
5841;SDS011;2947;52.276;9.946;2022-11-04T06:54:14;7.00;;;4.20;;
5841;SDS011;2947;52.276;9.946;2022-11-04T06:56:41;5.47;;;3.63;;
5841;SDS011;2947;52.276;9.946;2022-11-04T06:59:07;5.37;;;3.50;;
5841;SDS011;2947;52.276;9.946;2022-11-04T07:01:39;6.30;;;3.40;;
5841;SDS011;2947;52.276;9.946;2022-11-04T07:04:05;7.37;;;3.83;;
5841;SDS011;2947;52.276;9.946;2022-11-04T07:06:31;5.80;;;3.43;;
5841;SDS011;2947;52.276;9.946;2022-11-04T07:08:57;6.50;;;3.50;;
5841;SDS011;2947;52.276;9.946;2022-11-04T07:11:26;8.23;;;3.60;;
5841;SDS011;2947;52.276;9.946;2022-11-04T07:13:54;10.03;;;3.30;;
5841;SDS011;2947;52.276;9.946;2022-11-04T07:16:21;6.47;;;3.27;;
5841;SDS011;2947;52.276;9.946;2022-11-04T07:18:47;5.70;;;3.50;;
5841;SDS011;2947;52.276;9.946;2022-11-04T07:21:13;4.70;;;3.57;;
5841;SDS011;2947;52.276;9.946;2022-11-04T07:23:39;10.57;;;4.07;;
5841;SDS011;2947;52.276;9.946;2022-11-04T07:26:06;7.20;;;3.73;;
5841;SDS011;2947;52.276;9.946;2022-11-04T07:28:33;8.03;;;3.93;;
5841;SDS011;2947;52.276;9.946;2022-11-04T07:31:00;9.33;;;4.17;;
5841;SDS011;2947;52.276;9.946;2022-11-04T07:33:26;7.20;;;3.93;;
5841;SDS011;2947;52.276;9.946;2022-11-04T07:35:53;4.90;;;3.70;;
5841;SDS011;2947;52.276;9.946;2022-11-04T07:38:20;7.77;;;4.80;;
5841;SDS011;2947;52.276;9.946;2022-11-04T07:40:46;6.93;;;4.40;;
5841;SDS011;2947;52.276;9.946;2022-11-04T07:43:13;6.53;;;3.97;;
5841;SDS011;2947;52.276;9.946;2022-11-04T07:45:39;12.93;;;4.87;;
5841;SDS011;2947;52.276;9.946;2022-11-04T07:48:05;6.10;;;4.00;;
5841;SDS011;2947;52.276;9.946;2022-11-04T07:50:31;5.63;;;3.40;;
5841;SDS011;2947;52.276;9.946;2022-11-04T07:52:58;6.23;;;3.43;;
5841;SDS011;2947;52.276;9.946;2022-11-04T07:55:24;7.20;;;3.83;;
5841;SDS011;2947;52.276;9.946;2022-11-04T07:57:52;5.70;;;3.63;;
5841;SDS011;2947;52.276;9.946;2022-11-04T08:00:19;6.90;;;3.47;;
5841;SDS011;2947;52.276;9.946;2022-11-04T08:02:45;13.50;;;3.80;;
5841;SDS011;2947;52.276;9.946;2022-11-04T08:05:11;7.90;;;3.80;;
5841;SDS011;2947;52.276;9.946;2022-11-04T08:07:38;5.47;;;3.80;;
5841;SDS011;2947;52.276;9.946;2022-11-04T08:10:04;7.87;;;3.47;;
5841;SDS011;2947;52.276;9.946;2022-11-04T08:12:30;7.43;;;3.50;;
5841;SDS011;2947;52.276;9.946;2022-11-04T08:14:57;5.80;;;2.97;;
5841;SDS011;2947;52.276;9.946;2022-11-04T08:17:23;6.10;;;3.13;;
5841;SDS011;2947;52.276;9.946;2022-11-04T08:19:49;11.40;;;4.47;;
5841;SDS011;2947;52.276;9.946;2022-11-04T08:22:15;5.87;;;2.93;;
5841;SDS011;2947;52.276;9.946;2022-11-04T08:24:41;8.23;;;3.30;;
5841;SDS011;2947;52.276;9.946;2022-11-04T08:27:07;10.73;;;3.63;;
5841;SDS011;2947;52.276;9.946;2022-11-04T08:29:33;6.73;;;3.07;;
5841;SDS011;2947;52.276;9.946;2022-11-04T08:32:00;6.90;;;3.10;;
5841;SDS011;2947;52.276;9.946;2022-11-04T08:34:26;7.67;;;3.00;;
5841;SDS011;2947;52.276;9.946;2022-11-04T08:36:51;12.97;;;4.20;;
5841;SDS011;2947;52.276;9.946;2022-11-04T08:39:17;8.33;;;3.20;;
5841;SDS011;2947;52.276;9.946;2022-11-04T08:41:44;8.80;;;3.80;;
5841;SDS011;2947;52.276;9.946;2022-11-04T08:44:13;6.10;;;3.13;;
5841;SDS011;2947;52.276;9.946;2022-11-04T08:46:40;7.63;;;2.83;;
5841;SDS011;2947;52.276;9.946;2022-11-04T08:49:08;7.10;;;3.00;;
5841;SDS011;2947;52.276;9.946;2022-11-04T08:51:34;5.90;;;2.90;;
5841;SDS011;2947;52.276;9.946;2022-11-04T08:54:03;7.83;;;3.07;;
5841;SDS011;2947;52.276;9.946;2022-11-04T08:56:30;6.40;;;3.20;;
5841;SDS011;2947;52.276;9.946;2022-11-04T08:58:59;9.37;;;3.07;;
5841;SDS011;2947;52.276;9.946;2022-11-04T09:01:26;10.20;;;3.47;;
5841;SDS011;2947;52.276;9.946;2022-11-04T09:03:53;5.97;;;2.83;;
5841;SDS011;2947;52.276;9.946;2022-11-04T09:06:20;11.23;;;3.70;;
5841;SDS011;2947;52.276;9.946;2022-11-04T09:08:56;4.03;;;3.17;;
5841;SDS011;2947;52.276;9.946;2022-11-04T09:11:27;7.00;;;3.13;;
5841;SDS011;2947;52.276;9.946;2022-11-04T09:13:57;10.17;;;3.43;;
5841;SDS011;2947;52.276;9.946;2022-11-04T09:16:26;7.70;;;3.00;;
5841;SDS011;2947;52.276;9.946;2022-11-04T09:18:54;6.80;;;2.93;;
5841;SDS011;2947;52.276;9.946;2022-11-04T09:21:21;7.90;;;4.07;;
5841;SDS011;2947;52.276;9.946;2022-11-04T09:23:47;7.80;;;3.00;;
5841;SDS011;2947;52.276;9.946;2022-11-04T09:26:13;6.73;;;2.87;;
5841;SDS011;2947;52.276;9.946;2022-11-04T09:28:41;11.77;;;3.40;;
5841;SDS011;2947;52.276;9.946;2022-11-04T09:31:12;10.30;;;3.40;;
5841;SDS011;2947;52.276;9.946;2022-11-04T09:33:42;5.40;;;3.13;;
5841;SDS011;2947;52.276;9.946;2022-11-04T09:36:09;9.43;;;3.80;;
5841;SDS011;2947;52.276;9.946;2022-11-04T09:38:36;7.47;;;3.00;;
5841;SDS011;2947;52.276;9.946;2022-11-04T09:41:08;7.90;;;3.60;;
5841;SDS011;2947;52.276;9.946;2022-11-04T09:44:00;6.90;;;3.40;;
5841;SDS011;2947;52.276;9.946;2022-11-04T09:46:55;10.00;;;3.90;;
5841;SDS011;2947;52.276;9.946;2022-11-04T09:49:25;9.70;;;3.80;;
5841;SDS011;2947;52.276;9.946;2022-11-04T09:51:58;10.23;;;3.47;;
5841;SDS011;2947;52.276;9.946;2022-11-04T09:54:41;10.00;;;3.37;;
5841;SDS011;2947;52.276;9.946;2022-11-04T09:57:17;11.63;;;3.93;;
5841;SDS011;2947;52.276;9.946;2022-11-04T09:59:44;8.47;;;4.47;;
5841;SDS011;2947;52.276;9.946;2022-11-04T10:19:36;6.73;;;4.33;;
5841;SDS011;2947;52.276;9.946;2022-11-04T10:24:50;10.30;;;3.73;;
5841;SDS011;2947;52.276;9.946;2022-11-04T10:27:31;9.43;;;4.00;;
5841;SDS011;2947;52.276;9.946;2022-11-04T10:30:15;9.70;;;3.40;;
5841;SDS011;2947;52.276;9.946;2022-11-04T10:35:44;9.70;;;3.73;;
5841;SDS011;2947;52.276;9.946;2022-11-04T10:44:00;7.10;;;3.17;;
5841;SDS011;2947;52.276;9.946;2022-11-04T10:52:35;7.97;;;3.30;;
5841;SDS011;2947;52.276;9.946;2022-11-04T10:55:02;6.80;;;3.40;;
5841;SDS011;2947;52.276;9.946;2022-11-04T10:58:31;7.07;;;3.00;;
5841;SDS011;2947;52.276;9.946;2022-11-04T11:01:20;7.43;;;3.60;;
5841;SDS011;2947;52.276;9.946;2022-11-04T11:03:56;6.57;;;3.30;;
5841;SDS011;2947;52.276;9.946;2022-11-04T11:08:50;6.67;;;2.73;;
5841;SDS011;2947;52.276;9.946;2022-11-04T11:11:33;6.80;;;3.10;;
5841;SDS011;2947;52.276;9.946;2022-11-04T11:14:15;7.77;;;2.80;;
5841;SDS011;2947;52.276;9.946;2022-11-04T11:19:56;8.67;;;3.30;;
5841;SDS011;2947;52.276;9.946;2022-11-04T11:28:05;12.90;;;3.03;;
5841;SDS011;2947;52.276;9.946;2022-11-04T11:33:17;5.50;;;3.07;;
5841;SDS011;2947;52.276;9.946;2022-11-04T11:35:50;6.50;;;3.03;;
5841;SDS011;2947;52.276;9.946;2022-11-04T11:38:37;18.53;;;3.57;;
5841;SDS011;2947;52.276;9.946;2022-11-04T11:41:16;6.23;;;2.97;;
5841;SDS011;2947;52.276;9.946;2022-11-04T11:43:50;7.68;;;2.53;;
5841;SDS011;2947;52.276;9.946;2022-11-04T11:46:22;4.38;;;2.08;;
5841;SDS011;2947;52.276;9.946;2022-11-04T11:48:52;7.43;;;2.75;;
5841;SDS011;2947;52.276;9.946;2022-11-04T11:51:26;7.30;;;2.90;;
5841;SDS011;2947;52.276;9.946;2022-11-04T11:54:41;6.80;;;2.60;;
5841;SDS011;2947;52.276;9.946;2022-11-04T11:56:56;6.33;;;2.60;;
5841;SDS011;2947;52.276;9.946;2022-11-04T11:59:34;7.20;;;2.60;;
5841;SDS011;2947;52.276;9.946;2022-11-04T12:02:33;6.72;;;2.20;;
5841;SDS011;2947;52.276;9.946;2022-11-04T12:05:31;3.60;;;1.83;;
5841;SDS011;2947;52.276;9.946;2022-11-04T12:14:16;3.70;;;2.43;;
5841;SDS011;2947;52.276;9.946;2022-11-04T12:26:08;4.15;;;2.30;;
5841;SDS011;2947;52.276;9.946;2022-11-04T12:31:50;7.65;;;2.97;;
5841;SDS011;2947;52.276;9.946;2022-11-04T12:41:03;4.50;;;1.98;;
5841;SDS011;2947;52.276;9.946;2022-11-04T12:46:52;8.68;;;2.08;;
5841;SDS011;2947;52.276;9.946;2022-11-04T12:52:45;7.38;;;1.95;;
5841;SDS011;2947;52.276;9.946;2022-11-04T12:55:46;8.50;;;1.90;;
5841;SDS011;2947;52.276;9.946;2022-11-04T12:58:44;4.57;;;2.08;;
5841;SDS011;2947;52.276;9.946;2022-11-04T13:01:59;9.25;;;2.22;;
5841;SDS011;2947;52.276;9.946;2022-11-04T13:04:54;4.93;;;1.70;;
5841;SDS011;2947;52.276;9.946;2022-11-04T13:10:41;4.43;;;2.25;;
5841;SDS011;2947;52.276;9.946;2022-11-04T13:13:30;6.68;;;2.30;;
5841;SDS011;2947;52.276;9.946;2022-11-04T13:16:00;3.83;;;1.85;;
5841;SDS011;2947;52.276;9.946;2022-11-04T13:18:32;7.22;;;2.78;;
5841;SDS011;2947;52.276;9.946;2022-11-04T13:24:02;6.63;;;2.53;;
5841;SDS011;2947;52.276;9.946;2022-11-04T13:26:31;4.65;;;2.20;;
5841;SDS011;2947;52.276;9.946;2022-11-04T13:29:03;9.32;;;1.98;;
5841;SDS011;2947;52.276;9.946;2022-11-04T13:31:40;4.88;;;1.98;;
5841;SDS011;2947;52.276;9.946;2022-11-04T13:34:33;4.18;;;1.80;;
5841;SDS011;2947;52.276;9.946;2022-11-04T13:37:26;4.75;;;2.40;;
5841;SDS011;2947;52.276;9.946;2022-11-04T13:46:16;4.55;;;1.80;;
5841;SDS011;2947;52.276;9.946;2022-11-04T13:51:35;3.88;;;1.73;;
5841;SDS011;2947;52.276;9.946;2022-11-04T13:54:25;6.05;;;2.05;;
5841;SDS011;2947;52.276;9.946;2022-11-04T13:57:18;5.65;;;2.08;;
5841;SDS011;2947;52.276;9.946;2022-11-04T14:02:57;5.55;;;1.80;;
5841;SDS011;2947;52.276;9.946;2022-11-04T14:10:35;5.72;;;1.90;;
5841;SDS011;2947;52.276;9.946;2022-11-04T14:18:48;3.47;;;1.90;;
5841;SDS011;2947;52.276;9.946;2022-11-04T14:21:22;4.35;;;1.83;;
5841;SDS011;2947;52.276;9.946;2022-11-04T14:23:54;4.47;;;2.38;;
5841;SDS011;2947;52.276;9.946;2022-11-04T14:26:23;3.75;;;2.15;;
5841;SDS011;2947;52.276;9.946;2022-11-04T14:29:07;8.20;;;2.65;;
5841;SDS011;2947;52.276;9.946;2022-11-04T14:31:45;5.60;;;1.92;;
5841;SDS011;2947;52.276;9.946;2022-11-04T14:34:27;8.07;;;2.55;;
5841;SDS011;2947;52.276;9.946;2022-11-04T14:37:01;6.03;;;2.25;;
5841;SDS011;2947;52.276;9.946;2022-11-04T14:39:52;7.05;;;2.20;;
5841;SDS011;2947;52.276;9.946;2022-11-04T14:45:16;4.95;;;2.55;;
5841;SDS011;2947;52.276;9.946;2022-11-04T14:47:58;5.70;;;2.45;;
5841;SDS011;2947;52.276;9.946;2022-11-04T14:50:41;4.05;;;2.30;;
5841;SDS011;2947;52.276;9.946;2022-11-04T14:53:12;4.90;;;2.60;;
5841;SDS011;2947;52.276;9.946;2022-11-04T15:01:38;2.90;;;2.17;;
5841;SDS011;2947;52.276;9.946;2022-11-04T15:04:06;10.93;;;2.50;;
5841;SDS011;2947;52.276;9.946;2022-11-04T15:06:42;3.45;;;2.45;;
5841;SDS011;2947;52.276;9.946;2022-11-04T15:09:20;3.00;;;1.90;;
5841;SDS011;2947;52.276;9.946;2022-11-04T15:14:56;5.25;;;2.25;;
5841;SDS011;2947;52.276;9.946;2022-11-04T15:17:28;5.65;;;2.30;;
5841;SDS011;2947;52.276;9.946;2022-11-04T15:19:56;7.78;;;2.97;;
5841;SDS011;2947;52.276;9.946;2022-11-04T15:22:25;8.30;;;3.03;;
5841;SDS011;2947;52.276;9.946;2022-11-04T15:24:53;5.40;;;2.72;;
5841;SDS011;2947;52.276;9.946;2022-11-04T15:27:24;7.15;;;3.58;;
5841;SDS011;2947;52.276;9.946;2022-11-04T15:29:57;7.25;;;3.10;;
5841;SDS011;2947;52.276;9.946;2022-11-04T15:32:26;5.18;;;2.78;;
5841;SDS011;2947;52.276;9.946;2022-11-04T15:34:52;9.13;;;3.10;;
5841;SDS011;2947;52.276;9.946;2022-11-04T15:37:20;8.75;;;3.45;;
5841;SDS011;2947;52.276;9.946;2022-11-04T15:39:49;6.47;;;3.05;;
5841;SDS011;2947;52.276;9.946;2022-11-04T15:42:19;5.18;;;2.83;;
5841;SDS011;2947;52.276;9.946;2022-11-04T15:45:34;7.03;;;2.88;;
5841;SDS011;2947;52.276;9.946;2022-11-04T15:50:51;4.82;;;3.38;;
5841;SDS011;2947;52.276;9.946;2022-11-04T15:53:27;11.88;;;3.25;;
5841;SDS011;2947;52.276;9.946;2022-11-04T15:55:53;9.07;;;2.92;;
5841;SDS011;2947;52.276;9.946;2022-11-04T15:58:19;4.38;;;3.05;;
5841;SDS011;2947;52.276;9.946;2022-11-04T16:00:53;6.20;;;3.35;;
5841;SDS011;2947;52.276;9.946;2022-11-04T16:03:20;8.70;;;3.83;;
5841;SDS011;2947;52.276;9.946;2022-11-04T16:06:01;8.32;;;3.97;;
5841;SDS011;2947;52.276;9.946;2022-11-04T16:08:30;4.65;;;3.55;;
5841;SDS011;2947;52.276;9.946;2022-11-04T16:11:08;5.40;;;3.33;;
5841;SDS011;2947;52.276;9.946;2022-11-04T16:13:40;9.57;;;4.00;;
5841;SDS011;2947;52.276;9.946;2022-11-04T16:18:58;7.15;;;4.05;;
5841;SDS011;2947;52.276;9.946;2022-11-04T16:24:05;9.50;;;4.05;;
5841;SDS011;2947;52.276;9.946;2022-11-04T16:26:44;8.90;;;4.57;;
5841;SDS011;2947;52.276;9.946;2022-11-04T16:29:16;9.43;;;4.70;;
5841;SDS011;2947;52.276;9.946;2022-11-04T16:32:02;7.95;;;4.85;;
5841;SDS011;2947;52.276;9.946;2022-11-04T16:34:36;8.43;;;4.72;;
5841;SDS011;2947;52.276;9.946;2022-11-04T16:37:02;10.40;;;4.97;;
5841;SDS011;2947;52.276;9.946;2022-11-04T16:39:28;15.47;;;5.40;;
5841;SDS011;2947;52.276;9.946;2022-11-04T16:41:54;11.67;;;5.60;;
5841;SDS011;2947;52.276;9.946;2022-11-04T16:44:21;9.20;;;5.03;;
5841;SDS011;2947;52.276;9.946;2022-11-04T16:46:48;10.47;;;5.70;;
5841;SDS011;2947;52.276;9.946;2022-11-04T16:49:15;7.13;;;4.13;;
5841;SDS011;2947;52.276;9.946;2022-11-04T16:51:44;9.20;;;4.60;;
5841;SDS011;2947;52.276;9.946;2022-11-04T16:54:12;7.78;;;4.60;;
5841;SDS011;2947;52.276;9.946;2022-11-04T16:56:38;5.22;;;3.70;;
5841;SDS011;2947;52.276;9.946;2022-11-04T16:59:04;10.30;;;4.30;;
5841;SDS011;2947;52.276;9.946;2022-11-04T17:01:29;9.82;;;5.25;;
5841;SDS011;2947;52.276;9.946;2022-11-04T17:03:55;10.63;;;4.97;;
5841;SDS011;2947;52.276;9.946;2022-11-04T17:06:21;10.57;;;5.20;;
5841;SDS011;2947;52.276;9.946;2022-11-04T17:08:47;9.67;;;5.10;;
5841;SDS011;2947;52.276;9.946;2022-11-04T17:11:13;9.90;;;4.83;;
5841;SDS011;2947;52.276;9.946;2022-11-04T17:13:38;8.07;;;5.33;;
5841;SDS011;2947;52.276;9.946;2022-11-04T17:16:05;7.60;;;5.57;;
5841;SDS011;2947;52.276;9.946;2022-11-04T17:18:34;14.57;;;6.43;;
5841;SDS011;2947;52.276;9.946;2022-11-04T17:21:00;7.80;;;5.33;;
5841;SDS011;2947;52.276;9.946;2022-11-04T17:23:30;8.83;;;5.30;;
5841;SDS011;2947;52.276;9.946;2022-11-04T17:25:56;7.77;;;5.83;;
5841;SDS011;2947;52.276;9.946;2022-11-04T17:28:22;9.40;;;5.57;;
5841;SDS011;2947;52.276;9.946;2022-11-04T17:30:47;12.30;;;6.13;;
5841;SDS011;2947;52.276;9.946;2022-11-04T17:33:14;9.90;;;6.47;;
5841;SDS011;2947;52.276;9.946;2022-11-04T17:35:42;9.30;;;6.60;;
5841;SDS011;2947;52.276;9.946;2022-11-04T17:38:12;16.67;;;6.67;;
5841;SDS011;2947;52.276;9.946;2022-11-04T17:40:38;9.13;;;5.87;;
5841;SDS011;2947;52.276;9.946;2022-11-04T17:43:23;13.23;;;5.93;;
5841;SDS011;2947;52.276;9.946;2022-11-04T17:46:08;8.87;;;5.60;;
5841;SDS011;2947;52.276;9.946;2022-11-04T17:48:54;11.13;;;6.20;;
5841;SDS011;2947;52.276;9.946;2022-11-04T17:51:20;10.00;;;6.20;;
5841;SDS011;2947;52.276;9.946;2022-11-04T17:53:46;11.47;;;6.27;;
5841;SDS011;2947;52.276;9.946;2022-11-04T17:56:13;8.90;;;5.67;;
5841;SDS011;2947;52.276;9.946;2022-11-04T17:58:40;8.43;;;5.60;;
5841;SDS011;2947;52.276;9.946;2022-11-04T18:01:06;9.23;;;5.97;;
5841;SDS011;2947;52.276;9.946;2022-11-04T18:03:33;12.57;;;6.33;;
5841;SDS011;2947;52.276;9.946;2022-11-04T18:06:00;10.27;;;6.10;;
5841;SDS011;2947;52.276;9.946;2022-11-04T18:08:26;11.00;;;6.83;;
5841;SDS011;2947;52.276;9.946;2022-11-04T18:10:56;9.40;;;6.20;;
5841;SDS011;2947;52.276;9.946;2022-11-04T18:13:23;11.03;;;5.77;;
5841;SDS011;2947;52.276;9.946;2022-11-04T18:15:49;9.80;;;6.70;;
5841;SDS011;2947;52.276;9.946;2022-11-04T18:18:14;10.90;;;7.27;;
5841;SDS011;2947;52.276;9.946;2022-11-04T18:20:40;13.60;;;6.93;;
5841;SDS011;2947;52.276;9.946;2022-11-04T18:23:06;10.63;;;6.47;;
5841;SDS011;2947;52.276;9.946;2022-11-04T18:25:32;10.73;;;6.40;;
5841;SDS011;2947;52.276;9.946;2022-11-04T18:27:58;11.23;;;6.30;;
5841;SDS011;2947;52.276;9.946;2022-11-04T18:30:24;11.73;;;6.27;;
5841;SDS011;2947;52.276;9.946;2022-11-04T18:32:50;18.53;;;10.33;;